sensor_id;sensor_type;location;lat;lon;timestamp;P1;durP1;ratioP1;P2;durP2;ratioP2
29196;SDS011;62796;42.654;23.316;2022-08-19T00:02:22;9.18;;;6.78;;
29196;SDS011;62796;42.654;23.316;2022-08-19T00:04:47;9.60;;;6.45;;
29196;SDS011;62796;42.654;23.316;2022-08-19T00:07:17;10.80;;;6.97;;
29196;SDS011;62796;42.654;23.316;2022-08-19T00:09:46;10.25;;;6.57;;
29196;SDS011;62796;42.654;23.316;2022-08-19T00:12:12;9.48;;;6.80;;
29196;SDS011;62796;42.654;23.316;2022-08-19T00:14:38;9.05;;;6.70;;
29196;SDS011;62796;42.654;23.316;2022-08-19T00:17:05;9.35;;;6.95;;
29196;SDS011;62796;42.654;23.316;2022-08-19T00:19:31;9.13;;;6.07;;
29196;SDS011;62796;42.654;23.316;2022-08-19T00:21:58;9.10;;;6.30;;
29196;SDS011;62796;42.654;23.316;2022-08-19T00:24:24;12.15;;;6.82;;
29196;SDS011;62796;42.654;23.316;2022-08-19T00:26:50;11.95;;;7.25;;
29196;SDS011;62796;42.654;23.316;2022-08-19T00:29:18;8.43;;;6.38;;
29196;SDS011;62796;42.654;23.316;2022-08-19T00:31:48;7.45;;;6.28;;
29196;SDS011;62796;42.654;23.316;2022-08-19T00:34:15;8.38;;;6.50;;
29196;SDS011;62796;42.654;23.316;2022-08-19T00:36:41;9.25;;;6.07;;
29196;SDS011;62796;42.654;23.316;2022-08-19T00:39:07;6.95;;;6.25;;
29196;SDS011;62796;42.654;23.316;2022-08-19T00:41:34;7.97;;;6.65;;
29196;SDS011;62796;42.654;23.316;2022-08-19T00:44:07;7.65;;;6.53;;
29196;SDS011;62796;42.654;23.316;2022-08-19T00:46:42;7.97;;;6.05;;
29196;SDS011;62796;42.654;23.316;2022-08-19T00:49:10;10.63;;;6.18;;
29196;SDS011;62796;42.654;23.316;2022-08-19T00:51:39;7.15;;;6.45;;
29196;SDS011;62796;42.654;23.316;2022-08-19T00:54:07;9.15;;;6.25;;
29196;SDS011;62796;42.654;23.316;2022-08-19T00:56:34;7.50;;;6.00;;
29196;SDS011;62796;42.654;23.316;2022-08-19T00:59:00;12.00;;;6.20;;
29196;SDS011;62796;42.654;23.316;2022-08-19T01:01:27;9.07;;;6.32;;
29196;SDS011;62796;42.654;23.316;2022-08-19T01:03:53;7.68;;;6.55;;
29196;SDS011;62796;42.654;23.316;2022-08-19T01:06:18;8.40;;;6.55;;
29196;SDS011;62796;42.654;23.316;2022-08-19T01:08:44;8.88;;;6.88;;
29196;SDS011;62796;42.654;23.316;2022-08-19T01:11:09;10.02;;;6.68;;
29196;SDS011;62796;42.654;23.316;2022-08-19T01:13:35;10.48;;;7.05;;
29196;SDS011;62796;42.654;23.316;2022-08-19T01:16:05;9.35;;;6.90;;
29196;SDS011;62796;42.654;23.316;2022-08-19T01:18:38;7.25;;;6.53;;
29196;SDS011;62796;42.654;23.316;2022-08-19T01:21:09;8.63;;;6.97;;
29196;SDS011;62796;42.654;23.316;2022-08-19T01:23:43;7.95;;;7.15;;
29196;SDS011;62796;42.654;23.316;2022-08-19T01:26:14;7.45;;;6.65;;
29196;SDS011;62796;42.654;23.316;2022-08-19T01:28:42;7.20;;;6.50;;
29196;SDS011;62796;42.654;23.316;2022-08-19T01:31:13;8.32;;;7.07;;
29196;SDS011;62796;42.654;23.316;2022-08-19T01:33:43;7.40;;;6.68;;
29196;SDS011;62796;42.654;23.316;2022-08-19T01:36:14;11.45;;;7.15;;
29196;SDS011;62796;42.654;23.316;2022-08-19T01:38:47;8.82;;;7.15;;
29196;SDS011;62796;42.654;23.316;2022-08-19T01:41:13;8.90;;;7.15;;
29196;SDS011;62796;42.654;23.316;2022-08-19T01:43:39;11.43;;;7.25;;
29196;SDS011;62796;42.654;23.316;2022-08-19T01:46:05;8.52;;;7.57;;
29196;SDS011;62796;42.654;23.316;2022-08-19T01:48:38;11.13;;;8.07;;
29196;SDS011;62796;42.654;23.316;2022-08-19T01:51:05;8.43;;;7.47;;
29196;SDS011;62796;42.654;23.316;2022-08-19T01:53:32;10.13;;;8.25;;
29196;SDS011;62796;42.654;23.316;2022-08-19T01:55:58;9.60;;;7.65;;
29196;SDS011;62796;42.654;23.316;2022-08-19T01:58:25;11.65;;;7.38;;
29196;SDS011;62796;42.654;23.316;2022-08-19T02:00:55;11.55;;;8.18;;
29196;SDS011;62796;42.654;23.316;2022-08-19T02:03:21;9.52;;;8.40;;
29196;SDS011;62796;42.654;23.316;2022-08-19T02:05:47;9.00;;;7.32;;
29196;SDS011;62796;42.654;23.316;2022-08-19T02:08:13;11.40;;;7.63;;
29196;SDS011;62796;42.654;23.316;2022-08-19T02:10:40;8.70;;;7.43;;
29196;SDS011;62796;42.654;23.316;2022-08-19T02:13:07;8.90;;;8.00;;
29196;SDS011;62796;42.654;23.316;2022-08-19T02:15:33;8.73;;;7.75;;
29196;SDS011;62796;42.654;23.316;2022-08-19T02:17:58;10.32;;;7.88;;
29196;SDS011;62796;42.654;23.316;2022-08-19T02:20:24;11.75;;;7.82;;
29196;SDS011;62796;42.654;23.316;2022-08-19T02:22:49;14.05;;;7.90;;
29196;SDS011;62796;42.654;23.316;2022-08-19T02:25:15;12.02;;;7.60;;
29196;SDS011;62796;42.654;23.316;2022-08-19T02:27:41;8.48;;;7.43;;
29196;SDS011;62796;42.654;23.316;2022-08-19T02:30:08;8.13;;;7.32;;
29196;SDS011;62796;42.654;23.316;2022-08-19T02:32:35;7.07;;;6.38;;
29196;SDS011;62796;42.654;23.316;2022-08-19T02:35:01;8.10;;;6.60;;
29196;SDS011;62796;42.654;23.316;2022-08-19T02:37:27;9.00;;;7.22;;
29196;SDS011;62796;42.654;23.316;2022-08-19T02:40:11;9.48;;;7.40;;
29196;SDS011;62796;42.654;23.316;2022-08-19T02:42:37;11.63;;;7.13;;
29196;SDS011;62796;42.654;23.316;2022-08-19T02:45:02;10.05;;;7.13;;
29196;SDS011;62796;42.654;23.316;2022-08-19T02:47:30;15.43;;;8.32;;
29196;SDS011;62796;42.654;23.316;2022-08-19T02:49:55;10.35;;;7.32;;
29196;SDS011;62796;42.654;23.316;2022-08-19T02:52:20;12.75;;;7.93;;
29196;SDS011;62796;42.654;23.316;2022-08-19T02:54:48;10.73;;;7.95;;
29196;SDS011;62796;42.654;23.316;2022-08-19T02:57:13;9.88;;;7.55;;
29196;SDS011;62796;42.654;23.316;2022-08-19T02:59:39;9.45;;;7.68;;
29196;SDS011;62796;42.654;23.316;2022-08-19T03:02:04;8.73;;;7.57;;
29196;SDS011;62796;42.654;23.316;2022-08-19T03:04:30;12.32;;;7.75;;
29196;SDS011;62796;42.654;23.316;2022-08-19T03:06:55;10.02;;;7.53;;
29196;SDS011;62796;42.654;23.316;2022-08-19T03:09:21;9.10;;;7.93;;
29196;SDS011;62796;42.654;23.316;2022-08-19T03:11:46;9.85;;;7.90;;
29196;SDS011;62796;42.654;23.316;2022-08-19T03:14:12;10.55;;;7.75;;
29196;SDS011;62796;42.654;23.316;2022-08-19T03:16:42;9.95;;;8.00;;
29196;SDS011;62796;42.654;23.316;2022-08-19T03:19:12;9.00;;;7.65;;
29196;SDS011;62796;42.654;23.316;2022-08-19T03:21:39;14.55;;;9.00;;
29196;SDS011;62796;42.654;23.316;2022-08-19T03:24:06;13.85;;;8.40;;
29196;SDS011;62796;42.654;23.316;2022-08-19T03:26:34;10.50;;;7.72;;
29196;SDS011;62796;42.654;23.316;2022-08-19T03:29:04;10.20;;;8.20;;
29196;SDS011;62796;42.654;23.316;2022-08-19T03:31:30;10.35;;;8.10;;
29196;SDS011;62796;42.654;23.316;2022-08-19T03:33:56;9.77;;;8.23;;
29196;SDS011;62796;42.654;23.316;2022-08-19T03:36:24;14.98;;;8.38;;
29196;SDS011;62796;42.654;23.316;2022-08-19T03:38:52;15.55;;;8.68;;
29196;SDS011;62796;42.654;23.316;2022-08-19T03:41:26;17.75;;;8.82;;
29196;SDS011;62796;42.654;23.316;2022-08-19T03:43:55;21.65;;;9.80;;
29196;SDS011;62796;42.654;23.316;2022-08-19T03:46:25;16.02;;;9.38;;
29196;SDS011;62796;42.654;23.316;2022-08-19T03:48:53;20.25;;;9.48;;
29196;SDS011;62796;42.654;23.316;2022-08-19T03:51:22;17.88;;;10.15;;
29196;SDS011;62796;42.654;23.316;2022-08-19T03:53:56;16.50;;;8.95;;
29196;SDS011;62796;42.654;23.316;2022-08-19T03:56:23;15.60;;;9.38;;
29196;SDS011;62796;42.654;23.316;2022-08-19T03:58:53;18.33;;;8.30;;
29196;SDS011;62796;42.654;23.316;2022-08-19T04:01:20;17.33;;;7.75;;
29196;SDS011;62796;42.654;23.316;2022-08-19T04:03:47;14.27;;;7.80;;
29196;SDS011;62796;42.654;23.316;2022-08-19T04:06:14;13.18;;;8.40;;
29196;SDS011;62796;42.654;23.316;2022-08-19T04:08:42;22.73;;;9.38;;
29196;SDS011;62796;42.654;23.316;2022-08-19T04:11:09;16.63;;;8.65;;
29196;SDS011;62796;42.654;23.316;2022-08-19T04:13:36;14.80;;;8.82;;
29196;SDS011;62796;42.654;23.316;2022-08-19T04:16:03;21.77;;;9.65;;
29196;SDS011;62796;42.654;23.316;2022-08-19T04:18:29;19.20;;;9.90;;
29196;SDS011;62796;42.654;23.316;2022-08-19T04:20:55;17.35;;;8.93;;
29196;SDS011;62796;42.654;23.316;2022-08-19T04:23:22;23.25;;;9.63;;
29196;SDS011;62796;42.654;23.316;2022-08-19T04:25:48;17.20;;;9.27;;
29196;SDS011;62796;42.654;23.316;2022-08-19T04:28:13;18.95;;;9.30;;
29196;SDS011;62796;42.654;23.316;2022-08-19T04:30:43;26.92;;;10.57;;
29196;SDS011;62796;42.654;23.316;2022-08-19T04:33:12;16.80;;;10.00;;
29196;SDS011;62796;42.654;23.316;2022-08-19T04:35:40;25.73;;;10.52;;
29196;SDS011;62796;42.654;23.316;2022-08-19T04:38:07;17.73;;;9.35;;
29196;SDS011;62796;42.654;23.316;2022-08-19T04:40:34;24.08;;;10.20;;
29196;SDS011;62796;42.654;23.316;2022-08-19T04:43:27;29.50;;;9.63;;
29196;SDS011;62796;42.654;23.316;2022-08-19T04:45:52;15.65;;;9.50;;
29196;SDS011;62796;42.654;23.316;2022-08-19T04:48:18;13.25;;;9.65;;
29196;SDS011;62796;42.654;23.316;2022-08-19T04:50:51;16.10;;;9.25;;
29196;SDS011;62796;42.654;23.316;2022-08-19T04:53:22;16.60;;;9.57;;
29196;SDS011;62796;42.654;23.316;2022-08-19T04:55:58;24.10;;;9.60;;
29196;SDS011;62796;42.654;23.316;2022-08-19T04:58:28;23.15;;;11.00;;
29196;SDS011;62796;42.654;23.316;2022-08-19T05:00:53;21.48;;;9.88;;
29196;SDS011;62796;42.654;23.316;2022-08-19T05:03:19;23.35;;;11.27;;
29196;SDS011;62796;42.654;23.316;2022-08-19T05:05:46;16.65;;;11.30;;
29196;SDS011;62796;42.654;23.316;2022-08-19T05:08:14;18.50;;;11.60;;
29196;SDS011;62796;42.654;23.316;2022-08-19T05:10:45;21.98;;;10.88;;
29196;SDS011;62796;42.654;23.316;2022-08-19T05:13:13;24.70;;;11.85;;
29196;SDS011;62796;42.654;23.316;2022-08-19T05:15:39;27.50;;;11.95;;
29196;SDS011;62796;42.654;23.316;2022-08-19T05:18:05;25.60;;;13.52;;
29196;SDS011;62796;42.654;23.316;2022-08-19T05:20:49;40.53;;;19.48;;
29196;SDS011;62796;42.654;23.316;2022-08-19T05:23:32;32.38;;;14.75;;
29196;SDS011;62796;42.654;23.316;2022-08-19T05:25:58;24.60;;;13.32;;
29196;SDS011;62796;42.654;23.316;2022-08-19T05:28:23;28.58;;;11.88;;
29196;SDS011;62796;42.654;23.316;2022-08-19T05:30:49;18.02;;;10.75;;
29196;SDS011;62796;42.654;23.316;2022-08-19T05:33:16;25.25;;;10.43;;
29196;SDS011;62796;42.654;23.316;2022-08-19T05:35:42;31.05;;;11.48;;
29196;SDS011;62796;42.654;23.316;2022-08-19T05:38:09;30.50;;;11.25;;
29196;SDS011;62796;42.654;23.316;2022-08-19T05:40:36;32.25;;;11.02;;
29196;SDS011;62796;42.654;23.316;2022-08-19T05:43:06;22.85;;;12.25;;
29196;SDS011;62796;42.654;23.316;2022-08-19T05:45:33;33.22;;;11.95;;
29196;SDS011;62796;42.654;23.316;2022-08-19T05:48:04;22.20;;;10.82;;
29196;SDS011;62796;42.654;23.316;2022-08-19T05:50:29;16.38;;;10.25;;
29196;SDS011;62796;42.654;23.316;2022-08-19T05:52:55;26.98;;;12.40;;
29196;SDS011;62796;42.654;23.316;2022-08-19T05:55:20;18.92;;;10.07;;
29196;SDS011;62796;42.654;23.316;2022-08-19T05:57:47;23.13;;;13.18;;
29196;SDS011;62796;42.654;23.316;2022-08-19T06:00:13;13.63;;;9.60;;
29196;SDS011;62796;42.654;23.316;2022-08-19T06:02:39;23.42;;;10.07;;
29196;SDS011;62796;42.654;23.316;2022-08-19T06:05:05;14.35;;;8.13;;
29196;SDS011;62796;42.654;23.316;2022-08-19T06:07:32;12.52;;;7.78;;
29196;SDS011;62796;42.654;23.316;2022-08-19T06:09:58;13.63;;;8.27;;
29196;SDS011;62796;42.654;23.316;2022-08-19T06:12:23;13.60;;;7.47;;
29196;SDS011;62796;42.654;23.316;2022-08-19T06:14:53;14.77;;;8.40;;
29196;SDS011;62796;42.654;23.316;2022-08-19T06:17:19;15.35;;;8.20;;
29196;SDS011;62796;42.654;23.316;2022-08-19T06:19:46;15.63;;;8.55;;
29196;SDS011;62796;42.654;23.316;2022-08-19T06:22:11;13.45;;;8.35;;
29196;SDS011;62796;42.654;23.316;2022-08-19T06:24:38;12.13;;;8.73;;
29196;SDS011;62796;42.654;23.316;2022-08-19T06:27:03;13.07;;;9.43;;
29196;SDS011;62796;42.654;23.316;2022-08-19T06:29:30;19.17;;;8.32;;
29196;SDS011;62796;42.654;23.316;2022-08-19T06:31:57;16.55;;;8.10;;
29196;SDS011;62796;42.654;23.316;2022-08-19T06:34:25;15.18;;;8.30;;
29196;SDS011;62796;42.654;23.316;2022-08-19T06:36:52;20.90;;;7.97;;
29196;SDS011;62796;42.654;23.316;2022-08-19T06:39:20;17.27;;;7.63;;
29196;SDS011;62796;42.654;23.316;2022-08-19T06:41:55;12.57;;;7.70;;
29196;SDS011;62796;42.654;23.316;2022-08-19T06:44:22;11.38;;;7.07;;
29196;SDS011;62796;42.654;23.316;2022-08-19T06:46:51;12.52;;;7.07;;
29196;SDS011;62796;42.654;23.316;2022-08-19T06:49:17;12.82;;;7.53;;
29196;SDS011;62796;42.654;23.316;2022-08-19T06:51:43;15.18;;;7.65;;
29196;SDS011;62796;42.654;23.316;2022-08-19T06:54:12;9.90;;;7.63;;
29196;SDS011;62796;42.654;23.316;2022-08-19T06:56:38;15.45;;;7.78;;
29196;SDS011;62796;42.654;23.316;2022-08-19T06:59:08;13.60;;;7.55;;
29196;SDS011;62796;42.654;23.316;2022-08-19T07:01:36;13.05;;;7.45;;
29196;SDS011;62796;42.654;23.316;2022-08-19T07:04:05;11.10;;;7.45;;
29196;SDS011;62796;42.654;23.316;2022-08-19T07:06:32;11.68;;;7.80;;
29196;SDS011;62796;42.654;23.316;2022-08-19T07:08:57;24.25;;;8.50;;
29196;SDS011;62796;42.654;23.316;2022-08-19T07:11:23;10.15;;;7.00;;
29196;SDS011;62796;42.654;23.316;2022-08-19T07:13:49;11.80;;;7.30;;
29196;SDS011;62796;42.654;23.316;2022-08-19T07:16:16;15.90;;;7.70;;
29196;SDS011;62796;42.654;23.316;2022-08-19T07:18:45;9.93;;;7.38;;
29196;SDS011;62796;42.654;23.316;2022-08-19T07:21:12;15.75;;;7.07;;
29196;SDS011;62796;42.654;23.316;2022-08-19T07:23:43;9.77;;;6.95;;
29196;SDS011;62796;42.654;23.316;2022-08-19T07:26:15;13.75;;;7.60;;
29196;SDS011;62796;42.654;23.316;2022-08-19T07:28:46;14.93;;;6.88;;
29196;SDS011;62796;42.654;23.316;2022-08-19T07:31:14;11.27;;;6.72;;
29196;SDS011;62796;42.654;23.316;2022-08-19T07:33:43;12.57;;;8.18;;
29196;SDS011;62796;42.654;23.316;2022-08-19T07:36:09;13.23;;;7.85;;
29196;SDS011;62796;42.654;23.316;2022-08-19T07:38:37;14.93;;;7.75;;
29196;SDS011;62796;42.654;23.316;2022-08-19T07:41:05;13.38;;;8.15;;
29196;SDS011;62796;42.654;23.316;2022-08-19T07:43:31;17.73;;;7.68;;
29196;SDS011;62796;42.654;23.316;2022-08-19T07:45:57;15.57;;;7.90;;
29196;SDS011;62796;42.654;23.316;2022-08-19T07:48:23;16.15;;;7.47;;
29196;SDS011;62796;42.654;23.316;2022-08-19T07:50:51;21.40;;;12.57;;
29196;SDS011;62796;42.654;23.316;2022-08-19T07:53:17;18.00;;;9.85;;
29196;SDS011;62796;42.654;23.316;2022-08-19T07:55:44;10.90;;;7.68;;
29196;SDS011;62796;42.654;23.316;2022-08-19T07:58:11;10.50;;;6.93;;
29196;SDS011;62796;42.654;23.316;2022-08-19T08:00:39;10.90;;;6.90;;
29196;SDS011;62796;42.654;23.316;2022-08-19T08:03:05;15.75;;;7.03;;
29196;SDS011;62796;42.654;23.316;2022-08-19T08:05:30;17.83;;;7.30;;
29196;SDS011;62796;42.654;23.316;2022-08-19T08:08:14;13.07;;;7.53;;
29196;SDS011;62796;42.654;23.316;2022-08-19T08:10:59;14.68;;;7.88;;
29196;SDS011;62796;42.654;23.316;2022-08-19T08:13:25;17.48;;;8.13;;
29196;SDS011;62796;42.654;23.316;2022-08-19T08:15:52;15.80;;;7.53;;
29196;SDS011;62796;42.654;23.316;2022-08-19T08:18:17;9.55;;;6.63;;
29196;SDS011;62796;42.654;23.316;2022-08-19T08:20:43;8.73;;;7.15;;
29196;SDS011;62796;42.654;23.316;2022-08-19T08:23:09;11.70;;;7.85;;
29196;SDS011;62796;42.654;23.316;2022-08-19T08:25:56;12.50;;;7.45;;
29196;SDS011;62796;42.654;23.316;2022-08-19T08:28:23;15.23;;;6.95;;
29196;SDS011;62796;42.654;23.316;2022-08-19T08:30:49;9.60;;;7.05;;
29196;SDS011;62796;42.654;23.316;2022-08-19T08:33:22;14.52;;;6.97;;
29196;SDS011;62796;42.654;23.316;2022-08-19T08:35:50;12.80;;;7.07;;
29196;SDS011;62796;42.654;23.316;2022-08-19T08:38:15;12.40;;;5.18;;
29196;SDS011;62796;42.654;23.316;2022-08-19T08:43:27;10.45;;;5.30;;
29196;SDS011;62796;42.654;23.316;2022-08-19T08:46:06;14.15;;;5.43;;
29196;SDS011;62796;42.654;23.316;2022-08-19T08:51:29;9.07;;;6.50;;
29196;SDS011;62796;42.654;23.316;2022-08-19T08:53:59;7.43;;;5.93;;
29196;SDS011;62796;42.654;23.316;2022-08-19T08:56:26;8.55;;;5.72;;
29196;SDS011;62796;42.654;23.316;2022-08-19T08:59:02;13.90;;;5.65;;
29196;SDS011;62796;42.654;23.316;2022-08-19T09:01:34;13.60;;;6.20;;
29196;SDS011;62796;42.654;23.316;2022-08-19T09:04:02;16.17;;;5.88;;
29196;SDS011;62796;42.654;23.316;2022-08-19T09:17:06;7.57;;;5.10;;
29196;SDS011;62796;42.654;23.316;2022-08-19T09:19:34;10.13;;;5.07;;
29196;SDS011;62796;42.654;23.316;2022-08-19T09:22:11;4.88;;;4.47;;
29196;SDS011;62796;42.654;23.316;2022-08-19T09:24:36;5.75;;;4.43;;
29196;SDS011;62796;42.654;23.316;2022-08-19T09:27:03;6.70;;;4.70;;
29196;SDS011;62796;42.654;23.316;2022-08-19T09:29:29;5.20;;;4.30;;
29196;SDS011;62796;42.654;23.316;2022-08-19T09:31:55;6.75;;;4.65;;
29196;SDS011;62796;42.654;23.316;2022-08-19T09:34:20;4.57;;;4.13;;
29196;SDS011;62796;42.654;23.316;2022-08-19T09:36:46;10.55;;;4.65;;
29196;SDS011;62796;42.654;23.316;2022-08-19T09:39:11;6.45;;;4.22;;
29196;SDS011;62796;42.654;23.316;2022-08-19T09:41:37;5.65;;;4.15;;
29196;SDS011;62796;42.654;23.316;2022-08-19T09:44:02;13.48;;;9.48;;
29196;SDS011;62796;42.654;23.316;2022-08-19T09:46:28;9.43;;;7.32;;
29196;SDS011;62796;42.654;23.316;2022-08-19T09:48:59;11.18;;;4.35;;
29196;SDS011;62796;42.654;23.316;2022-08-19T09:51:25;7.03;;;4.47;;
29196;SDS011;62796;42.654;23.316;2022-08-19T09:53:53;5.97;;;4.05;;
29196;SDS011;62796;42.654;23.316;2022-08-19T09:56:20;5.05;;;3.88;;
29196;SDS011;62796;42.654;23.316;2022-08-19T09:58:47;7.88;;;4.45;;
29196;SDS011;62796;42.654;23.316;2022-08-19T10:01:20;6.22;;;4.30;;
29196;SDS011;62796;42.654;23.316;2022-08-19T10:03:49;7.82;;;4.47;;
29196;SDS011;62796;42.654;23.316;2022-08-19T10:06:18;8.65;;;4.43;;
29196;SDS011;62796;42.654;23.316;2022-08-19T10:08:45;10.32;;;4.60;;
29196;SDS011;62796;42.654;23.316;2022-08-19T10:11:10;7.22;;;4.47;;
29196;SDS011;62796;42.654;23.316;2022-08-19T10:13:36;6.97;;;4.65;;
29196;SDS011;62796;42.654;23.316;2022-08-19T10:16:06;6.30;;;4.22;;
29196;SDS011;62796;42.654;23.316;2022-08-19T10:18:33;5.55;;;4.10;;
29196;SDS011;62796;42.654;23.316;2022-08-19T10:21:10;5.03;;;4.53;;
29196;SDS011;62796;42.654;23.316;2022-08-19T10:23:42;9.88;;;4.85;;
29196;SDS011;62796;42.654;23.316;2022-08-19T10:26:12;8.82;;;4.95;;
29196;SDS011;62796;42.654;23.316;2022-08-19T10:28:39;9.98;;;4.70;;
29196;SDS011;62796;42.654;23.316;2022-08-19T10:31:16;8.52;;;4.68;;
29196;SDS011;62796;42.654;23.316;2022-08-19T10:33:46;11.20;;;5.03;;
29196;SDS011;62796;42.654;23.316;2022-08-19T10:36:14;18.65;;;4.97;;
29196;SDS011;62796;42.654;23.316;2022-08-19T10:38:46;6.85;;;4.60;;
29196;SDS011;62796;42.654;23.316;2022-08-19T10:41:16;9.30;;;5.00;;
29196;SDS011;62796;42.654;23.316;2022-08-19T10:43:43;12.00;;;4.90;;
29196;SDS011;62796;42.654;23.316;2022-08-19T10:46:12;18.60;;;5.70;;
29196;SDS011;62796;42.654;23.316;2022-08-19T10:48:38;11.07;;;5.05;;
29196;SDS011;62796;42.654;23.316;2022-08-19T10:51:05;8.57;;;4.93;;
29196;SDS011;62796;42.654;23.316;2022-08-19T10:53:50;7.05;;;4.47;;
29196;SDS011;62796;42.654;23.316;2022-08-19T10:56:16;6.60;;;4.55;;
29196;SDS011;62796;42.654;23.316;2022-08-19T10:59:01;11.20;;;4.65;;
29196;SDS011;62796;42.654;23.316;2022-08-19T11:01:28;8.85;;;4.93;;
29196;SDS011;62796;42.654;23.316;2022-08-19T11:03:56;10.85;;;5.53;;
29196;SDS011;62796;42.654;23.316;2022-08-19T11:06:24;7.45;;;5.15;;
29196;SDS011;62796;42.654;23.316;2022-08-19T11:08:50;6.50;;;5.78;;
29196;SDS011;62796;42.654;23.316;2022-08-19T11:11:17;8.50;;;5.07;;
29196;SDS011;62796;42.654;23.316;2022-08-19T11:13:43;6.50;;;4.90;;
29196;SDS011;62796;42.654;23.316;2022-08-19T11:16:13;5.95;;;4.90;;
29196;SDS011;62796;42.654;23.316;2022-08-19T11:18:47;12.38;;;5.07;;
29196;SDS011;62796;42.654;23.316;2022-08-19T11:21:21;25.67;;;5.68;;
29196;SDS011;62796;42.654;23.316;2022-08-19T11:23:50;10.35;;;5.05;;
29196;SDS011;62796;42.654;23.316;2022-08-19T11:26:18;7.10;;;4.13;;
29196;SDS011;62796;42.654;23.316;2022-08-19T11:28:44;6.38;;;3.92;;
29196;SDS011;62796;42.654;23.316;2022-08-19T11:31:15;8.15;;;4.75;;
29196;SDS011;62796;42.654;23.316;2022-08-19T11:33:43;11.05;;;4.95;;
29196;SDS011;62796;42.654;23.316;2022-08-19T11:36:09;6.22;;;4.70;;
29196;SDS011;62796;42.654;23.316;2022-08-19T11:38:35;9.73;;;5.00;;
29196;SDS011;62796;42.654;23.316;2022-08-19T11:41:03;8.73;;;4.63;;
29196;SDS011;62796;42.654;23.316;2022-08-19T11:43:31;11.40;;;5.28;;
29196;SDS011;62796;42.654;23.316;2022-08-19T11:45:57;9.90;;;4.50;;
29196;SDS011;62796;42.654;23.316;2022-08-19T11:48:23;13.18;;;10.13;;
29196;SDS011;62796;42.654;23.316;2022-08-19T11:50:51;10.30;;;5.20;;
29196;SDS011;62796;42.654;23.316;2022-08-19T11:53:19;6.47;;;4.50;;
29196;SDS011;62796;42.654;23.316;2022-08-19T11:55:45;5.57;;;4.70;;
29196;SDS011;62796;42.654;23.316;2022-08-19T11:58:15;9.35;;;4.70;;
29196;SDS011;62796;42.654;23.316;2022-08-19T12:00:42;10.38;;;5.10;;
29196;SDS011;62796;42.654;23.316;2022-08-19T12:03:10;5.45;;;4.63;;
29196;SDS011;62796;42.654;23.316;2022-08-19T12:05:36;5.55;;;5.05;;
29196;SDS011;62796;42.654;23.316;2022-08-19T12:08:03;6.28;;;4.75;;
29196;SDS011;62796;42.654;23.316;2022-08-19T12:10:28;8.18;;;4.95;;
29196;SDS011;62796;42.654;23.316;2022-08-19T12:12:54;6.72;;;4.55;;
29196;SDS011;62796;42.654;23.316;2022-08-19T12:15:19;6.47;;;4.93;;
29196;SDS011;62796;42.654;23.316;2022-08-19T12:17:45;10.50;;;4.55;;
29196;SDS011;62796;42.654;23.316;2022-08-19T12:20:10;6.85;;;4.65;;
29196;SDS011;62796;42.654;23.316;2022-08-19T12:22:38;6.28;;;4.75;;
29196;SDS011;62796;42.654;23.316;2022-08-19T12:25:06;11.02;;;5.18;;
29196;SDS011;62796;42.654;23.316;2022-08-19T12:27:32;11.07;;;5.22;;
29196;SDS011;62796;42.654;23.316;2022-08-19T12:29:58;7.75;;;4.90;;
29196;SDS011;62796;42.654;23.316;2022-08-19T12:32:26;16.60;;;14.75;;
29196;SDS011;62796;42.654;23.316;2022-08-19T12:34:51;5.22;;;4.60;;
29196;SDS011;62796;42.654;23.316;2022-08-19T12:37:17;6.95;;;4.40;;
29196;SDS011;62796;42.654;23.316;2022-08-19T12:39:42;7.68;;;4.63;;
29196;SDS011;62796;42.654;23.316;2022-08-19T12:42:09;8.68;;;4.50;;
29196;SDS011;62796;42.654;23.316;2022-08-19T12:44:35;6.63;;;4.50;;
29196;SDS011;62796;42.654;23.316;2022-08-19T12:47:03;7.43;;;4.65;;
29196;SDS011;62796;42.654;23.316;2022-08-19T12:49:29;6.10;;;5.32;;
29196;SDS011;62796;42.654;23.316;2022-08-19T12:51:58;8.57;;;4.72;;
29196;SDS011;62796;42.654;23.316;2022-08-19T12:54:25;7.25;;;4.82;;
29196;SDS011;62796;42.654;23.316;2022-08-19T12:56:51;10.18;;;4.93;;
29196;SDS011;62796;42.654;23.316;2022-08-19T12:59:16;9.70;;;5.15;;
29196;SDS011;62796;42.654;23.316;2022-08-19T13:01:43;10.43;;;5.55;;
29196;SDS011;62796;42.654;23.316;2022-08-19T13:04:09;7.32;;;5.15;;
29196;SDS011;62796;42.654;23.316;2022-08-19T13:06:35;6.65;;;4.30;;
29196;SDS011;62796;42.654;23.316;2022-08-19T13:09:01;7.30;;;4.50;;
29196;SDS011;62796;42.654;23.316;2022-08-19T13:11:26;12.10;;;5.47;;
29196;SDS011;62796;42.654;23.316;2022-08-19T13:13:57;9.32;;;5.03;;
29196;SDS011;62796;42.654;23.316;2022-08-19T13:16:22;5.35;;;4.75;;
29196;SDS011;62796;42.654;23.316;2022-08-19T13:18:48;8.43;;;4.70;;
29196;SDS011;62796;42.654;23.316;2022-08-19T13:21:17;9.07;;;4.95;;
29196;SDS011;62796;42.654;23.316;2022-08-19T13:23:44;7.20;;;5.00;;
29196;SDS011;62796;42.654;23.316;2022-08-19T13:26:10;8.82;;;4.68;;
29196;SDS011;62796;42.654;23.316;2022-08-19T13:28:37;10.80;;;4.88;;
29196;SDS011;62796;42.654;23.316;2022-08-19T13:31:22;6.65;;;5.05;;
29196;SDS011;62796;42.654;23.316;2022-08-19T13:34:07;7.47;;;4.68;;
29196;SDS011;62796;42.654;23.316;2022-08-19T13:36:33;8.85;;;4.95;;
29196;SDS011;62796;42.654;23.316;2022-08-19T13:39:00;7.10;;;5.45;;
29196;SDS011;62796;42.654;23.316;2022-08-19T13:41:26;7.72;;;4.30;;
29196;SDS011;62796;42.654;23.316;2022-08-19T13:43:53;8.45;;;5.38;;
29196;SDS011;62796;42.654;23.316;2022-08-19T13:46:19;8.63;;;4.70;;
29196;SDS011;62796;42.654;23.316;2022-08-19T13:48:45;6.68;;;5.05;;
29196;SDS011;62796;42.654;23.316;2022-08-19T13:51:12;5.63;;;4.25;;
29196;SDS011;62796;42.654;23.316;2022-08-19T13:53:38;7.13;;;4.93;;
29196;SDS011;62796;42.654;23.316;2022-08-19T13:56:05;13.00;;;5.03;;
29196;SDS011;62796;42.654;23.316;2022-08-19T13:58:32;7.47;;;5.00;;
29196;SDS011;62796;42.654;23.316;2022-08-19T14:00:57;8.27;;;5.13;;
29196;SDS011;62796;42.654;23.316;2022-08-19T14:03:24;8.85;;;4.88;;
29196;SDS011;62796;42.654;23.316;2022-08-19T14:05:50;9.60;;;5.03;;
29196;SDS011;62796;42.654;23.316;2022-08-19T14:08:15;5.70;;;5.00;;
29196;SDS011;62796;42.654;23.316;2022-08-19T14:10:41;6.65;;;5.22;;
29196;SDS011;62796;42.654;23.316;2022-08-19T14:13:09;9.00;;;5.30;;
29196;SDS011;62796;42.654;23.316;2022-08-19T14:15:37;10.25;;;5.28;;
29196;SDS011;62796;42.654;23.316;2022-08-19T14:18:03;13.55;;;5.75;;
29196;SDS011;62796;42.654;23.316;2022-08-19T14:20:28;11.73;;;5.75;;
29196;SDS011;62796;42.654;23.316;2022-08-19T14:22:54;7.53;;;5.35;;
29196;SDS011;62796;42.654;23.316;2022-08-19T14:25:21;10.63;;;6.60;;
29196;SDS011;62796;42.654;23.316;2022-08-19T14:27:48;10.35;;;5.10;;
29196;SDS011;62796;42.654;23.316;2022-08-19T14:30:16;7.20;;;4.90;;
29196;SDS011;62796;42.654;23.316;2022-08-19T14:32:46;8.73;;;5.50;;
29196;SDS011;62796;42.654;23.316;2022-08-19T14:35:12;7.32;;;5.35;;
29196;SDS011;62796;42.654;23.316;2022-08-19T14:37:40;5.70;;;5.00;;
29196;SDS011;62796;42.654;23.316;2022-08-19T14:40:07;8.95;;;5.25;;
29196;SDS011;62796;42.654;23.316;2022-08-19T14:42:33;6.20;;;5.57;;
29196;SDS011;62796;42.654;23.316;2022-08-19T14:44:59;7.28;;;5.82;;
29196;SDS011;62796;42.654;23.316;2022-08-19T14:47:26;8.38;;;5.43;;